createdAt,value
2022-11-28T00:01:07.307Z,11.48
2022-11-28T00:03:33.838Z,11.25
2022-11-28T00:06:05.105Z,11.28
2022-11-28T00:08:32.524Z,11.16
2022-11-28T00:10:59.020Z,11.47
2022-11-28T00:13:25.457Z,11.13
2022-11-28T00:15:59.290Z,11.09
2022-11-28T00:18:25.797Z,11.33
2022-11-28T00:20:52.276Z,11.27
2022-11-28T00:23:18.710Z,11.28
2022-11-28T00:25:45.089Z,11.35
2022-11-28T00:28:11.547Z,11.28
2022-11-28T00:30:39.295Z,11.38
2022-11-28T00:33:05.712Z,11.29
2022-11-28T00:35:32.094Z,11.04
2022-11-28T00:37:58.632Z,11.33
2022-11-28T00:40:25.125Z,11.45
2022-11-28T00:42:51.628Z,11.07
2022-11-28T00:45:18.061Z,11.08
2022-11-28T00:47:44.564Z,11.13
2022-11-28T00:50:11.131Z,11.11
2022-11-28T00:52:37.542Z,11.37
2022-11-28T00:55:04.256Z,11.21
2022-11-28T00:57:30.798Z,11.19
2022-11-28T00:59:57.269Z,10.99
2022-11-28T01:02:23.947Z,11.01
2022-11-28T01:04:50.347Z,11.17
2022-11-28T01:07:16.992Z,11.16
2022-11-28T01:09:43.803Z,11.07
2022-11-28T01:12:10.204Z,11.06
2022-11-28T01:14:36.594Z,11.09
2022-11-28T01:17:03.143Z,11.08
2022-11-28T01:19:29.691Z,11.11
2022-11-28T01:21:56.123Z,11.20
2022-11-28T01:24:22.585Z,11.10
2022-11-28T01:26:49.161Z,11.12
2022-11-28T01:29:16.394Z,11.16
2022-11-28T01:31:42.849Z,11.02
2022-11-28T01:34:09.698Z,11.39
2022-11-28T01:36:36.338Z,11.41
2022-11-28T01:39:02.808Z,11.24
2022-11-28T01:41:29.287Z,11.11
2022-11-28T01:44:04.684Z,11.05
2022-11-28T01:46:31.930Z,11.24
2022-11-28T01:49:03.554Z,11.62
2022-11-28T01:51:30.387Z,11.39
2022-11-28T01:53:56.900Z,11.23
2022-11-28T01:56:26.494Z,11.22
2022-11-28T01:58:57.135Z,11.28
2022-11-28T02:01:24.618Z,11.39
2022-11-28T02:03:51.438Z,11.38
2022-11-28T02:06:21.071Z,11.47
2022-11-28T02:08:51.383Z,11.62
2022-11-28T02:11:55.487Z,11.70
2022-11-28T02:14:59.508Z,11.45
2022-11-28T02:17:51.356Z,11.22
2022-11-28T02:20:25.036Z,11.14
2022-11-28T02:23:26.788Z,11.22
2022-11-28T02:26:03.165Z,11.07
2022-11-28T02:28:29.715Z,11.07
2022-11-28T02:31:20.444Z,11.09
2022-11-28T02:33:51.458Z,11.05
2022-11-28T02:36:17.788Z,11.24
2022-11-28T02:39:02.717Z,11.47
2022-11-28T02:41:32.065Z,11.36
2022-11-28T02:44:11.717Z,11.23
2022-11-28T02:46:46.891Z,11.39
2022-11-28T02:49:38.107Z,11.53
2022-11-28T02:52:15.519Z,11.68
2022-11-28T02:54:43.030Z,11.75
2022-11-28T02:57:09.622Z,11.19
2022-11-28T02:59:39.108Z,11.35
2022-11-28T03:02:13.273Z,11.39
2022-11-28T03:04:43.132Z,11.36
2022-11-28T03:07:44.554Z,11.30
2022-11-28T03:10:25.362Z,11.68
2022-11-28T03:13:29.628Z,11.79
2022-11-28T03:16:31.423Z,11.75
2022-11-28T03:19:04.861Z,11.64
2022-11-28T03:22:10.736Z,11.60
2022-11-28T03:24:44.975Z,11.71
2022-11-28T03:27:19.791Z,11.68
2022-11-28T03:29:50.417Z,11.47
2022-11-28T03:32:20.947Z,11.48
2022-11-28T03:34:49.931Z,11.28
2022-11-28T03:37:46.098Z,11.46
2022-11-28T03:40:20.547Z,11.74
2022-11-28T03:42:52.518Z,11.45
2022-11-28T03:45:22.551Z,11.62
2022-11-28T03:47:54.658Z,11.61
2022-11-28T03:50:26.908Z,11.50
2022-11-28T03:53:06.440Z,11.48
2022-11-28T03:55:44.277Z,11.46
2022-11-28T03:58:24.578Z,11.52
2022-11-28T04:01:03.836Z,11.57
2022-11-28T04:03:52.717Z,11.42
2022-11-28T04:06:26.753Z,11.34
2022-11-28T04:09:03.809Z,11.50
2022-11-28T04:11:51.396Z,11.57
2022-11-28T04:14:29.432Z,11.54
2022-11-28T04:17:01.018Z,11.42
2022-11-28T04:19:53.782Z,11.55
2022-11-28T04:22:28.811Z,11.65
2022-11-28T04:24:58.733Z,11.38
2022-11-28T04:27:30.044Z,11.55
2022-11-28T04:29:59.628Z,11.72
2022-11-28T04:32:26.861Z,11.76
2022-11-28T04:34:57.291Z,11.48
2022-11-28T04:37:25.502Z,11.64
2022-11-28T04:39:52.751Z,11.70
2022-11-28T04:42:26.793Z,11.55
2022-11-28T04:44:57.662Z,11.57
2022-11-28T04:47:25.112Z,11.58
2022-11-28T04:49:52.335Z,11.82
2022-11-28T04:52:31.998Z,11.95
2022-11-28T04:55:08.557Z,11.99
2022-11-28T04:57:44.235Z,11.90
2022-11-28T05:00:13.831Z,11.74
2022-11-28T05:02:41.652Z,11.54
2022-11-28T05:05:14.372Z,11.54
2022-11-28T05:07:40.861Z,11.50
2022-11-28T05:10:07.932Z,11.63
2022-11-28T05:12:34.365Z,11.34
2022-11-28T05:15:00.937Z,11.44
2022-11-28T05:17:27.398Z,11.42
2022-11-28T05:19:53.856Z,11.36
2022-11-28T05:22:20.302Z,11.51
2022-11-28T05:24:46.898Z,11.61
2022-11-28T05:27:13.505Z,11.62
2022-11-28T05:29:46.897Z,11.48
2022-11-28T05:32:15.936Z,11.58
2022-11-28T05:34:42.731Z,11.71
2022-11-28T05:37:09.295Z,11.66
2022-11-28T05:39:35.829Z,11.54
2022-11-28T05:42:02.222Z,11.36
2022-11-28T05:44:28.595Z,11.42
2022-11-28T05:46:55.078Z,11.48
2022-11-28T05:49:21.704Z,11.59
2022-11-28T05:51:48.756Z,11.51
2022-11-28T05:54:15.343Z,11.38
2022-11-28T05:56:42.597Z,11.41
2022-11-28T05:59:09.185Z,11.40
2022-11-28T06:01:35.588Z,11.38
2022-11-28T06:04:02.123Z,11.33
2022-11-28T06:06:31.165Z,11.30
2022-11-28T06:08:57.963Z,11.46
2022-11-28T06:11:26.076Z,11.46
2022-11-28T06:13:52.975Z,11.23
2022-11-28T06:16:27.747Z,11.32
2022-11-28T06:18:56.249Z,11.16
2022-11-28T06:21:23.386Z,11.25
2022-11-28T06:23:50.100Z,11.24
2022-11-28T06:26:19.363Z,11.31
2022-11-28T06:28:45.863Z,11.10
2022-11-28T06:31:13.989Z,11.34
2022-11-28T06:33:41.169Z,11.26
2022-11-28T06:36:08.741Z,11.37
2022-11-28T06:38:35.226Z,11.32
2022-11-28T06:41:07.045Z,11.32
2022-11-28T06:43:33.943Z,11.24
2022-11-28T06:46:00.673Z,11.17
2022-11-28T06:48:27.876Z,11.52
2022-11-28T06:50:54.529Z,11.51
2022-11-28T06:53:21.882Z,11.68
2022-11-28T06:55:48.319Z,11.62
2022-11-28T06:58:14.754Z,11.34
2022-11-28T07:00:41.302Z,11.29
2022-11-28T07:03:07.924Z,11.28
2022-11-28T07:05:34.458Z,11.35
2022-11-28T07:08:00.984Z,11.65
2022-11-28T07:10:28.138Z,11.43
2022-11-28T07:13:04.927Z,11.48
2022-11-28T07:15:32.045Z,11.55
2022-11-28T07:17:58.464Z,11.35
2022-11-28T07:20:24.995Z,11.42
2022-11-28T07:22:51.460Z,11.47
2022-11-28T07:25:18.079Z,11.35
2022-11-28T07:27:44.549Z,11.16
2022-11-28T07:30:11.231Z,11.17
2022-11-28T07:32:41.108Z,11.26
2022-11-28T07:35:08.983Z,11.23
2022-11-28T07:37:35.720Z,11.39
2022-11-28T07:40:02.141Z,11.44
2022-11-28T07:42:28.593Z,11.42
2022-11-28T07:44:55.047Z,11.41
2022-11-28T07:47:21.870Z,11.35
2022-11-28T07:49:48.277Z,11.06
2022-11-28T07:52:14.714Z,11.12
2022-11-28T07:54:41.356Z,11.07
2022-11-28T07:57:11.895Z,11.11
2022-11-28T07:59:39.319Z,11.04
2022-11-28T08:02:05.824Z,11.12
2022-11-28T08:04:32.387Z,11.13
2022-11-28T08:06:58.863Z,11.13
2022-11-28T08:09:25.372Z,11.11
2022-11-28T08:11:52.481Z,11.31
2022-11-28T08:14:19.909Z,11.08
2022-11-28T08:16:46.516Z,11.26
2022-11-28T08:19:13.474Z,11.45
2022-11-28T08:21:39.932Z,11.45
2022-11-28T08:24:07.983Z,11.29
2022-11-28T08:26:35.518Z,11.19
2022-11-28T08:29:02.649Z,11.24
2022-11-28T08:31:31.467Z,11.39
2022-11-28T08:34:00.055Z,11.26
2022-11-28T08:36:28.990Z,11.29
2022-11-28T08:39:22.272Z,11.40
2022-11-28T08:41:42.771Z,11.39
2022-11-28T08:44:09.220Z,11.40
2022-11-28T08:46:36.640Z,11.18
2022-11-28T08:49:04.592Z,11.35
2022-11-28T08:51:31.776Z,11.27
2022-11-28T08:53:59.753Z,11.43
2022-11-28T08:56:27.021Z,11.16
2022-11-28T08:58:54.080Z,11.52
2022-11-28T09:01:23.191Z,11.42
2022-11-28T09:03:51.090Z,11.07
2022-11-28T09:06:18.301Z,11.45
2022-11-28T09:08:45.376Z,11.47
2022-11-28T09:11:14.619Z,11.39
2022-11-28T09:13:41.500Z,11.37
2022-11-28T09:16:08.468Z,11.42
2022-11-28T09:18:34.938Z,11.43
2022-11-28T09:21:04.615Z,11.45
2022-11-28T09:23:31.106Z,11.32
2022-11-28T09:25:57.679Z,11.50
2022-11-28T09:28:24.647Z,11.43
2022-11-28T09:30:59.860Z,11.57
2022-11-28T09:33:26.448Z,11.62
2022-11-28T09:35:52.992Z,11.59
2022-11-28T09:38:19.648Z,11.56
2022-11-28T09:40:46.137Z,11.77
2022-11-28T09:43:18.708Z,11.54
2022-11-28T09:45:45.349Z,11.73
2022-11-28T09:48:24.691Z,11.66
2022-11-28T09:50:54.102Z,11.62
2022-11-28T09:53:28.862Z,11.71
2022-11-28T09:56:24.726Z,11.38
2022-11-28T09:58:59.222Z,11.55
2022-11-28T10:01:36.959Z,11.48
2022-11-28T10:04:13.501Z,11.65
2022-11-28T10:06:54.378Z,11.61
2022-11-28T10:10:05.030Z,11.62
2022-11-28T10:13:04.877Z,11.57
2022-11-28T10:15:53.739Z,11.73
2022-11-28T10:18:29.437Z,11.65
2022-11-28T10:21:01.262Z,11.75
2022-11-28T10:23:35.582Z,11.65
2022-11-28T10:26:07.996Z,11.68
2022-11-28T10:28:39.098Z,11.81
2022-11-28T10:31:33.884Z,11.81
2022-11-28T10:34:30.343Z,11.70
2022-11-28T10:37:04.010Z,11.72
2022-11-28T10:39:30.733Z,11.91
2022-11-28T10:42:13.802Z,11.90
2022-11-28T10:44:46.251Z,11.81
2022-11-28T10:47:40.047Z,11.87
2022-11-28T10:50:18.915Z,12.03
2022-11-28T10:52:51.708Z,11.91
2022-11-28T10:55:42.354Z,12.11
2022-11-28T10:58:15.845Z,12.08
2022-11-28T11:00:45.468Z,11.99
2022-11-28T11:03:13.965Z,12.04
2022-11-28T11:05:40.446Z,12.08
2022-11-28T11:08:21.036Z,12.07
2022-11-28T11:10:51.537Z,12.21
2022-11-28T11:13:23.915Z,12.22
2022-11-28T11:16:22.960Z,12.04
2022-11-28T11:18:49.362Z,12.27
2022-11-28T11:21:21.369Z,12.40
2022-11-28T11:23:48.992Z,12.40
2022-11-28T11:26:39.177Z,12.54
2022-11-28T11:29:05.847Z,12.55
2022-11-28T11:31:42.342Z,12.59
2022-11-28T11:34:20.203Z,12.67
2022-11-28T11:36:47.335Z,12.46
2022-11-28T11:39:13.708Z,12.77
2022-11-28T11:41:42.247Z,12.71
2022-11-28T11:44:14.541Z,12.50
2022-11-28T11:46:58.092Z,12.51
2022-11-28T11:49:37.734Z,12.35
2022-11-28T11:52:06.625Z,12.60
2022-11-28T11:54:33.450Z,12.77
2022-11-28T11:57:25.032Z,12.70
2022-11-28T11:59:50.661Z,12.79
2022-11-28T12:02:27.972Z,12.60
2022-11-28T12:05:16.187Z,12.85
2022-11-28T12:08:02.913Z,12.80
2022-11-28T12:10:39.667Z,12.60
2022-11-28T12:13:06.100Z,12.75
2022-11-28T12:15:44.688Z,12.81
2022-11-28T12:18:27.537Z,12.61
2022-11-28T12:21:13.874Z,12.49
2022-11-28T12:23:57.460Z,12.57
2022-11-28T12:26:32.787Z,12.56
2022-11-28T12:32:25.849Z,12.63
2022-11-28T12:35:17.457Z,12.38
2022-11-28T12:38:09.810Z,12.46
2022-11-28T12:40:51.925Z,12.36
2022-11-28T12:43:42.620Z,12.24
2022-11-28T12:46:30.518Z,12.30
2022-11-28T12:49:19.137Z,12.43
2022-11-28T12:52:41.332Z,12.38
2022-11-28T12:55:16.774Z,12.66
2022-11-28T12:57:49.244Z,12.63
2022-11-28T13:00:21.331Z,12.63
2022-11-28T13:03:15.904Z,12.30
2022-11-28T13:05:57.753Z,12.35
2022-11-28T13:08:52.135Z,12.49
2022-11-28T13:11:46.089Z,12.56
2022-11-28T13:14:31.217Z,12.30
2022-11-28T13:17:17.434Z,12.52
2022-11-28T13:19:53.882Z,12.62
2022-11-28T13:22:24.186Z,12.55
2022-11-28T13:24:53.700Z,12.59
2022-11-28T13:27:42.312Z,12.09
2022-11-28T13:30:29.269Z,12.29
2022-11-28T13:32:58.669Z,12.24
2022-11-28T13:35:25.338Z,12.34
2022-11-28T13:40:47.164Z,12.26
2022-11-28T13:43:27.906Z,12.27
2022-11-28T13:45:54.960Z,11.99
2022-11-28T13:48:57.538Z,11.99
2022-11-28T13:51:33.622Z,12.10
2022-11-28T13:54:21.640Z,11.90
2022-11-28T13:57:05.040Z,12.13
2022-11-28T13:59:32.437Z,12.15
2022-11-28T14:02:01.085Z,11.88
2022-11-28T14:04:28.585Z,11.91
2022-11-28T14:07:35.911Z,11.99
2022-11-28T14:10:28.638Z,11.90
2022-11-28T14:12:55.112Z,12.09
2022-11-28T14:15:26.416Z,12.07
2022-11-28T14:18:48.335Z,12.20
2022-11-28T14:21:45.080Z,12.02
2022-11-28T14:24:33.398Z,11.96
2022-11-28T14:27:02.533Z,12.33
2022-11-28T14:29:35.564Z,12.24
2022-11-28T14:34:49.046Z,12.17
2022-11-28T14:37:21.519Z,12.19
2022-11-28T14:39:49.280Z,12.16
2022-11-28T14:42:36.731Z,11.97
2022-11-28T14:45:11.144Z,11.97
2022-11-28T14:47:42.888Z,12.16
2022-11-28T14:50:09.416Z,12.15
2022-11-28T14:52:39.554Z,11.98
2022-11-28T14:55:27.223Z,11.99
2022-11-28T14:57:53.590Z,12.25
2022-11-28T15:00:25.848Z,12.04
2022-11-28T15:03:10.873Z,11.83
2022-11-28T15:05:51.856Z,11.89
2022-11-28T15:08:37.191Z,11.80
2022-11-28T15:11:58.503Z,11.93
2022-11-28T15:14:29.339Z,11.84
2022-11-28T15:17:01.580Z,11.83
2022-11-28T15:19:39.701Z,11.90
2022-11-28T15:22:06.271Z,11.88
2022-11-28T15:24:34.750Z,11.92
2022-11-28T15:27:25.610Z,11.88
2022-11-28T15:30:00.024Z,11.87
2022-11-28T15:32:28.291Z,11.99
2022-11-28T15:35:05.369Z,12.13
2022-11-28T15:37:34.895Z,12.06
2022-11-28T15:40:06.190Z,11.91
2022-11-28T15:42:34.541Z,12.00
2022-11-28T15:45:35.384Z,12.16
2022-11-28T15:48:01.972Z,12.07
2022-11-28T15:50:29.945Z,11.92
2022-11-28T15:53:04.656Z,11.90
2022-11-28T15:55:33.683Z,11.83
2022-11-28T15:58:17.987Z,11.75
2022-11-28T16:00:47.539Z,11.72
2022-11-28T16:03:18.021Z,11.59
2022-11-28T16:05:45.860Z,11.82
2022-11-28T16:08:26.194Z,11.86
2022-11-28T16:10:52.857Z,11.90
2022-11-28T16:13:21.296Z,11.94
2022-11-28T16:15:50.356Z,11.83
2022-11-28T16:18:17.263Z,11.93
2022-11-28T16:20:43.767Z,11.86
2022-11-28T16:23:18.529Z,11.91
2022-11-28T16:25:45.016Z,11.79
2022-11-28T16:28:37.416Z,11.86
2022-11-28T16:31:11.815Z,12.07
2022-11-28T16:33:43.473Z,12.06
2022-11-28T16:36:10.919Z,11.96
2022-11-28T16:38:38.037Z,11.98
2022-11-28T16:41:04.592Z,11.89
2022-11-28T16:43:39.159Z,11.90
2022-11-28T16:46:07.770Z,11.85
2022-11-28T16:48:38.755Z,11.84
2022-11-28T16:51:14.963Z,11.89
2022-11-28T16:53:55.195Z,11.88
2022-11-28T16:56:32.085Z,12.04
2022-11-28T16:59:07.595Z,12.18
2022-11-28T17:01:35.532Z,12.32
2022-11-28T17:04:03.979Z,12.33
2022-11-28T17:06:34.824Z,12.59
2022-11-28T17:09:02.191Z,12.72
2022-11-28T17:11:32.713Z,12.27
2022-11-28T17:14:02.289Z,12.42
2022-11-28T17:16:33.396Z,12.89
2022-11-28T17:19:00.197Z,11.77
2022-11-28T17:21:48.794Z,11.54
2022-11-28T17:24:21.451Z,11.59
2022-11-28T17:26:48.823Z,11.55
2022-11-28T17:29:15.991Z,11.69
2022-11-28T17:31:43.766Z,11.47
2022-11-28T17:34:17.049Z,11.33
2022-11-28T17:36:43.748Z,11.72
2022-11-28T17:39:11.428Z,11.65
2022-11-28T17:41:38.743Z,11.80
2022-11-28T17:44:05.841Z,11.71
2022-11-28T17:46:32.545Z,11.72
2022-11-28T17:48:59.390Z,11.72
2022-11-28T17:51:26.066Z,11.75
2022-11-28T17:53:52.818Z,11.79
2022-11-28T17:56:19.251Z,11.65
2022-11-28T17:58:46.096Z,11.76
2022-11-28T18:01:15.964Z,11.63
2022-11-28T18:03:42.499Z,11.54
2022-11-28T18:06:16.326Z,11.62
2022-11-28T18:08:43.542Z,11.52
2022-11-28T18:11:11.121Z,11.44
2022-11-28T18:13:37.549Z,11.36
2022-11-28T18:16:04.106Z,11.33
2022-11-28T18:18:32.075Z,11.43
2022-11-28T18:20:58.696Z,11.54
2022-11-28T18:23:25.166Z,11.70
2022-11-28T18:25:51.834Z,11.60
2022-11-28T18:28:20.285Z,11.60
2022-11-28T18:30:47.485Z,11.58
2022-11-28T18:33:14.751Z,11.57
2022-11-28T18:35:41.541Z,11.54
2022-11-28T18:38:08.804Z,11.59
2022-11-28T18:40:36.327Z,11.55
2022-11-28T18:43:03.409Z,11.51
2022-11-28T18:45:30.320Z,11.66
2022-11-28T18:48:00.185Z,11.68
2022-11-28T18:50:27.108Z,11.62
2022-11-28T18:52:54.340Z,11.81
2022-11-28T18:55:20.900Z,11.91
2022-11-28T18:57:47.389Z,11.84
2022-11-28T19:00:14.397Z,11.86
2022-11-28T19:02:40.878Z,11.81
2022-11-28T19:05:07.509Z,11.86
2022-11-28T19:07:33.998Z,11.80
2022-11-28T19:10:00.410Z,11.73
2022-11-28T19:12:27.748Z,11.82
2022-11-28T19:15:00.303Z,11.60
2022-11-28T19:17:28.434Z,11.44
2022-11-28T19:19:54.873Z,11.46
2022-11-28T19:22:22.770Z,11.65
2022-11-28T19:24:49.160Z,11.74
2022-11-28T19:27:15.617Z,11.74
2022-11-28T19:29:42.358Z,11.59
2022-11-28T19:32:09.129Z,11.64
2022-11-28T19:34:35.591Z,11.64
2022-11-28T19:37:02.022Z,11.73
2022-11-28T19:39:28.451Z,11.77
2022-11-28T19:41:55.426Z,11.74
2022-11-28T19:44:24.126Z,11.50
2022-11-28T19:46:50.791Z,11.13
2022-11-28T19:49:22.280Z,11.37
2022-11-28T19:51:49.560Z,11.30
2022-11-28T19:54:16.953Z,11.34
2022-11-28T19:56:43.497Z,11.56
2022-11-28T19:59:10.749Z,11.48
2022-11-28T20:01:38.122Z,11.53
2022-11-28T20:04:04.840Z,11.46
2022-11-28T20:06:32.410Z,11.40
2022-11-28T20:09:02.303Z,11.45
2022-11-28T20:11:33.797Z,11.40
2022-11-28T20:14:06.677Z,11.32
2022-11-28T20:16:35.314Z,11.44
2022-11-28T20:19:02.248Z,11.44
2022-11-28T20:21:29.905Z,11.57
2022-11-28T20:24:03.150Z,11.61
2022-11-28T20:26:31.275Z,11.44
2022-11-28T20:28:57.731Z,11.39
2022-11-28T20:31:33.856Z,11.51
2022-11-28T20:34:00.958Z,11.47
2022-11-28T20:36:29.259Z,11.43
2022-11-28T20:38:56.465Z,11.40
2022-11-28T20:41:24.332Z,11.56
2022-11-28T20:43:51.117Z,11.12
2022-11-28T20:46:23.186Z,11.19
2022-11-28T20:48:50.627Z,11.34
2022-11-28T20:51:19.934Z,11.69
2022-11-28T20:53:46.636Z,11.81
2022-11-28T20:56:24.418Z,11.81
2022-11-28T20:58:51.404Z,11.86
2022-11-28T21:01:29.661Z,12.15
2022-11-28T21:03:57.281Z,12.17
2022-11-28T21:06:23.724Z,11.87
2022-11-28T21:08:50.169Z,11.71
2022-11-28T21:11:43.326Z,11.61
2022-11-28T21:14:06.145Z,11.62
2022-11-28T21:16:33.206Z,11.61
2022-11-28T21:19:03.939Z,11.63
2022-11-28T21:21:32.287Z,11.47
2022-11-28T21:24:04.450Z,11.43
2022-11-28T21:26:35.044Z,11.59
2022-11-28T21:29:06.878Z,11.53
2022-11-28T21:31:36.410Z,11.62
2022-11-28T21:34:02.892Z,11.45
2022-11-28T21:36:30.603Z,11.49
2022-11-28T21:38:58.952Z,11.56
2022-11-28T21:41:34.352Z,11.41
2022-11-28T21:44:01.211Z,11.36
2022-11-28T21:46:27.908Z,11.46
2022-11-28T21:48:54.432Z,11.47
2022-11-28T21:51:23.428Z,11.41
2022-11-28T21:53:50.313Z,11.19
2022-11-28T21:56:18.783Z,11.37
2022-11-28T21:58:45.317Z,11.46
2022-11-28T22:01:13.333Z,11.51
2022-11-28T22:03:43.739Z,11.47
2022-11-28T22:06:36.491Z,11.51
2022-11-28T22:09:09.042Z,11.50
2022-11-28T22:11:36.740Z,11.51
2022-11-28T22:14:03.176Z,11.46
2022-11-28T22:16:29.803Z,11.44
2022-11-28T22:18:58.799Z,10.91
2022-11-28T22:24:12.141Z,11.45
2022-11-28T22:26:38.582Z,11.18
2022-11-28T22:29:05.035Z,11.32
2022-11-28T22:31:31.920Z,11.11
2022-11-28T22:33:58.469Z,11.41
2022-11-28T22:36:25.041Z,11.52
2022-11-28T22:38:55.788Z,11.60
2022-11-28T22:41:28.271Z,11.52
2022-11-28T22:43:57.038Z,11.52
2022-11-28T22:46:23.719Z,11.53
2022-11-28T22:48:51.776Z,11.58
2022-11-28T22:51:24.791Z,11.41
2022-11-28T22:53:55.671Z,11.36
2022-11-28T22:56:22.542Z,11.26
2022-11-28T22:58:49.894Z,11.27
2022-11-28T23:01:22.275Z,11.28
2022-11-28T23:03:48.806Z,11.22
2022-11-28T23:06:17.901Z,11.26
2022-11-28T23:08:44.837Z,11.23
2022-11-28T23:11:17.602Z,11.08
2022-11-28T23:13:44.817Z,11.04
2022-11-28T23:16:19.147Z,10.96
2022-11-28T23:18:47.021Z,10.78
2022-11-28T23:21:14.454Z,10.83
2022-11-28T23:23:41.175Z,10.86
2022-11-28T23:26:11.119Z,11.00
2022-11-28T23:28:37.974Z,11.08
2022-11-28T23:31:16.409Z,10.65
2022-11-28T23:33:43.352Z,10.72
2022-11-28T23:36:18.726Z,10.77
2022-11-28T23:38:46.900Z,10.89
2022-11-28T23:41:13.920Z,11.04
2022-11-28T23:43:40.519Z,10.83
2022-11-28T23:46:08.104Z,10.86
2022-11-28T23:48:34.742Z,10.89
2022-11-28T23:51:01.212Z,10.88
2022-11-28T23:53:27.651Z,10.98
2022-11-28T23:55:54.067Z,10.86
2022-11-28T23:58:20.722Z,11.12
